createdAt,value
2023-05-14T04:26:45.782Z,7.32
2023-05-14T04:29:13.382Z,8.68
2023-05-14T04:31:42.103Z,7.75
2023-05-14T04:34:09.436Z,8.23
2023-05-14T04:36:36.734Z,7.93
2023-05-14T04:39:04.498Z,7.88
2023-05-14T04:41:32.177Z,7.97
2023-05-14T04:44:04.131Z,7.40
2023-05-14T04:46:31.933Z,7.68
2023-05-14T04:48:59.254Z,8.05
2023-05-14T04:51:27.026Z,8.20
2023-05-14T04:53:54.288Z,8.13
2023-05-14T04:56:21.966Z,7.55
2023-05-14T04:58:49.633Z,8.05
2023-05-14T05:01:16.945Z,8.15
2023-05-14T05:03:44.774Z,8.30
2023-05-14T05:06:12.153Z,7.78
2023-05-14T05:08:41.008Z,7.63
2023-05-14T05:11:08.810Z,8.52
2023-05-14T05:13:36.095Z,8.02
2023-05-14T05:16:03.986Z,7.25
2023-05-14T05:18:31.402Z,6.88
2023-05-14T05:20:59.725Z,7.45
2023-05-14T05:23:27.441Z,6.97
2023-05-14T05:25:54.770Z,7.13
2023-05-14T05:28:23.033Z,7.25
2023-05-14T05:30:50.295Z,6.97
2023-05-14T05:33:17.542Z,6.47
2023-05-14T05:35:45.534Z,6.80
2023-05-14T05:38:12.874Z,6.43
2023-05-14T05:40:40.560Z,6.32
2023-05-14T05:43:07.934Z,6.10
2023-05-14T05:45:35.187Z,6.38
2023-05-14T05:48:03.053Z,6.30
2023-05-14T05:50:31.647Z,6.25
2023-05-14T05:53:01.536Z,6.10
2023-05-14T05:55:29.987Z,5.93
2023-05-14T05:57:57.414Z,5.13
2023-05-14T06:00:25.825Z,5.18
2023-05-14T06:02:53.632Z,5.88
2023-05-14T06:05:21.303Z,5.35
2023-05-14T06:07:48.711Z,4.90
2023-05-14T06:10:16.175Z,4.47
2023-05-14T06:12:43.473Z,4.88
2023-05-14T06:15:12.165Z,4.10
2023-05-14T06:17:40.022Z,3.50
2023-05-14T06:20:08.964Z,4.22
2023-05-14T06:22:36.789Z,3.80
2023-05-14T06:25:04.855Z,3.72
2023-05-14T06:27:32.295Z,3.50
2023-05-14T06:29:59.613Z,3.10
2023-05-14T06:32:26.984Z,3.03
2023-05-14T06:34:54.760Z,3.05
2023-05-14T06:37:22.250Z,2.80
2023-05-14T06:39:52.410Z,3.20
2023-05-14T06:42:20.057Z,2.90
2023-05-14T06:44:48.313Z,2.72
2023-05-14T06:47:15.591Z,2.75
2023-05-14T06:49:43.363Z,2.88
2023-05-14T06:52:10.768Z,2.72
2023-05-14T06:54:38.095Z,3.13
2023-05-14T06:57:05.959Z,2.70
2023-05-14T06:59:33.364Z,2.70
2023-05-14T07:02:01.404Z,2.70
2023-05-14T07:04:29.361Z,2.75
2023-05-14T07:06:56.615Z,2.72
2023-05-14T07:09:24.854Z,2.95
2023-05-14T07:11:53.023Z,2.80
2023-05-14T07:14:20.358Z,3.17
2023-05-14T07:16:47.838Z,2.97
2023-05-14T07:19:15.797Z,3.58
2023-05-14T07:21:43.075Z,2.92
2023-05-14T07:24:10.931Z,2.75
2023-05-14T07:26:39.400Z,2.85
2023-05-14T07:29:07.374Z,2.63
2023-05-14T07:31:35.130Z,3.15
2023-05-14T07:34:03.349Z,3.22
2023-05-14T07:36:30.888Z,3.70
2023-05-14T07:38:58.312Z,3.42
2023-05-14T07:41:25.580Z,3.40
2023-05-14T07:43:52.945Z,3.67
2023-05-14T07:46:20.896Z,3.40
2023-05-14T07:48:48.690Z,3.58
2023-05-14T07:51:16.164Z,3.33
2023-05-14T07:53:43.572Z,3.65
2023-05-14T07:56:11.099Z,3.50
2023-05-14T07:58:38.867Z,4.22
2023-05-14T08:01:09.137Z,4.78
2023-05-14T08:03:37.178Z,4.10
2023-05-14T08:06:05.804Z,4.57
2023-05-14T08:08:33.884Z,4.55
2023-05-14T08:11:02.203Z,5.07
2023-05-14T08:13:29.875Z,5.88
2023-05-14T08:15:57.300Z,5.60
2023-05-14T08:18:24.781Z,5.57
2023-05-14T08:20:53.098Z,6.20
2023-05-14T08:23:20.527Z,6.45
2023-05-14T08:25:48.290Z,6.05
2023-05-14T08:28:16.566Z,6.82
2023-05-14T08:30:43.867Z,6.85
2023-05-14T08:33:11.686Z,7.53
2023-05-14T08:35:39.518Z,8.00
2023-05-14T08:38:07.282Z,8.18
2023-05-14T08:40:34.987Z,8.75
2023-05-14T08:43:03.600Z,8.73
2023-05-14T08:45:34.215Z,9.30
2023-05-14T08:48:05.649Z,9.07
2023-05-14T08:50:33.522Z,8.88
2023-05-14T08:53:01.065Z,9.23
2023-05-14T08:55:30.563Z,8.30
2023-05-14T08:57:57.927Z,7.32
2023-05-14T09:00:26.549Z,6.25
2023-05-14T09:02:55.091Z,7.30
2023-05-14T09:05:24.765Z,6.85
2023-05-14T09:07:52.210Z,7.10
2023-05-14T09:10:22.280Z,6.78
2023-05-14T09:12:51.517Z,7.07
2023-05-14T09:15:19.065Z,6.80
2023-05-14T09:17:48.034Z,7.63
2023-05-14T09:20:16.228Z,8.10
2023-05-14T09:22:43.673Z,8.52
2023-05-14T09:25:14.921Z,9.10
2023-05-14T09:27:42.783Z,7.15
2023-05-14T09:30:12.941Z,7.68
2023-05-14T09:32:44.068Z,8.65
2023-05-14T09:35:21.494Z,9.52
2023-05-14T09:37:53.696Z,7.60
2023-05-14T09:40:23.310Z,7.70
2023-05-14T09:42:52.173Z,7.93
2023-05-14T09:45:20.080Z,8.27
2023-05-14T09:47:47.624Z,9.68
2023-05-14T09:50:15.112Z,8.82
2023-05-14T09:52:42.909Z,8.43
2023-05-14T09:55:11.094Z,7.78
2023-05-14T09:57:38.899Z,10.82
2023-05-14T10:00:08.756Z,7.53
2023-05-14T10:03:08.099Z,7.95
2023-05-14T10:05:37.009Z,7.13
2023-05-14T10:08:16.224Z,7.07
2023-05-14T10:10:43.591Z,6.95
2023-05-14T10:13:16.891Z,6.30
2023-05-14T10:15:49.529Z,6.32
2023-05-14T10:18:19.849Z,7.57
2023-05-14T10:21:03.359Z,6.93
2023-05-14T10:23:31.007Z,6.38
2023-05-14T10:25:59.672Z,5.82
2023-05-14T10:28:28.106Z,6.75
2023-05-14T10:30:55.490Z,5.82
2023-05-14T10:33:23.664Z,5.85
2023-05-14T10:35:57.285Z,5.43
2023-05-14T10:38:36.321Z,5.45
2023-05-14T10:41:16.555Z,5.03
2023-05-14T10:43:44.524Z,5.22
2023-05-14T10:46:14.278Z,4.82
2023-05-14T10:48:43.535Z,5.00
2023-05-14T10:51:12.603Z,4.07
2023-05-14T10:53:42.363Z,3.97
2023-05-14T10:56:12.452Z,3.63
2023-05-14T10:58:45.079Z,3.80
2023-05-14T11:01:13.691Z,4.50
2023-05-14T11:03:46.918Z,3.28
2023-05-14T11:06:15.489Z,3.53
2023-05-14T11:08:44.396Z,3.15
2023-05-14T11:11:12.113Z,2.88
2023-05-14T11:13:41.264Z,3.35
2023-05-14T11:16:21.705Z,2.88
2023-05-14T11:21:30.385Z,2.58
2023-05-14T11:24:00.926Z,3.00
2023-05-14T11:26:28.292Z,2.50
2023-05-14T11:28:56.074Z,2.70
2023-05-14T11:31:24.264Z,2.70
2023-05-14T11:33:53.465Z,2.45
2023-05-14T11:36:21.297Z,2.03
2023-05-14T11:38:51.412Z,2.35
2023-05-14T11:41:21.338Z,2.30
2023-05-14T11:43:49.422Z,2.25
2023-05-14T11:46:21.765Z,2.03
2023-05-14T11:48:49.271Z,1.85
2023-05-14T11:51:16.826Z,1.60
2023-05-14T11:53:46.450Z,2.30
2023-05-14T11:56:13.967Z,1.90
2023-05-14T11:58:41.822Z,1.60
2023-05-14T12:01:14.179Z,1.58
2023-05-14T12:03:42.343Z,1.70
2023-05-14T12:06:09.883Z,1.70
2023-05-14T12:08:37.717Z,1.58
2023-05-14T12:11:05.726Z,1.40
2023-05-14T12:13:33.902Z,1.42
2023-05-14T12:16:02.656Z,1.20
2023-05-14T12:18:32.891Z,1.02
2023-05-14T12:21:04.522Z,1.05
2023-05-14T12:23:32.785Z,1.30
2023-05-14T12:26:06.376Z,1.60
2023-05-14T12:28:37.939Z,1.30
2023-05-14T12:31:06.411Z,1.30
2023-05-14T12:33:33.869Z,1.38
2023-05-14T12:36:07.414Z,1.60
2023-05-14T12:38:48.704Z,1.40
2023-05-14T12:41:17.232Z,1.30
2023-05-14T12:43:47.377Z,1.08
2023-05-14T12:46:15.539Z,1.30
2023-05-14T12:48:43.204Z,1.27
2023-05-14T12:51:11.051Z,1.10
2023-05-14T12:53:38.490Z,1.02
2023-05-14T12:56:06.414Z,1.40
2023-05-14T12:58:33.783Z,1.30
2023-05-14T13:01:01.613Z,0.98
2023-05-14T13:03:29.602Z,1.10
2023-05-14T13:05:57.426Z,0.90
2023-05-14T13:08:26.121Z,0.80
2023-05-14T13:10:54.830Z,1.10
2023-05-14T13:13:22.969Z,0.90
2023-05-14T13:15:50.295Z,1.02
2023-05-14T13:18:17.776Z,0.90
2023-05-14T13:20:47.313Z,1.00
2023-05-14T13:23:15.712Z,1.20
2023-05-14T13:25:43.467Z,1.00
2023-05-14T13:28:10.773Z,0.88
2023-05-14T13:30:38.262Z,1.38
2023-05-14T13:33:06.082Z,1.08
2023-05-14T13:35:34.747Z,1.00
2023-05-14T13:38:02.168Z,1.08
2023-05-14T13:40:29.902Z,0.88
2023-05-14T13:42:57.246Z,1.40
2023-05-14T13:45:25.857Z,1.27
2023-05-14T13:47:53.840Z,1.48
2023-05-14T13:50:22.151Z,1.17
2023-05-14T13:52:49.518Z,1.50
2023-05-14T13:55:17.318Z,1.38
2023-05-14T13:57:44.753Z,1.45
2023-05-14T14:00:13.438Z,1.30
2023-05-14T14:02:41.151Z,1.35
2023-05-14T14:05:09.522Z,1.40
2023-05-14T14:07:37.379Z,1.42
2023-05-14T14:10:05.654Z,0.88
2023-05-14T14:12:33.597Z,1.77
2023-05-14T14:15:02.807Z,1.90
2023-05-14T14:17:34.008Z,1.75
2023-05-14T14:20:01.391Z,1.60
2023-05-14T14:22:29.558Z,1.55
2023-05-14T14:24:57.630Z,1.40
2023-05-14T14:27:26.000Z,1.20
2023-05-14T14:29:53.948Z,1.38
2023-05-14T14:32:21.324Z,1.00
2023-05-14T14:34:49.076Z,1.10
2023-05-14T14:37:16.442Z,1.02
2023-05-14T14:39:44.222Z,0.93
2023-05-14T14:42:12.530Z,1.10
2023-05-14T14:44:41.403Z,1.00
2023-05-14T14:47:09.151Z,1.60
2023-05-14T14:49:36.976Z,2.20
2023-05-14T14:52:05.223Z,2.17
2023-05-14T14:54:33.107Z,1.20
2023-05-14T14:57:01.075Z,1.35
2023-05-14T14:59:28.525Z,1.77
2023-05-14T15:01:56.028Z,1.70
2023-05-14T15:04:23.596Z,1.90
2023-05-14T15:06:51.244Z,1.75
2023-05-14T15:09:20.281Z,1.38
2023-05-14T15:11:48.054Z,1.08
2023-05-14T15:14:16.401Z,1.00
2023-05-14T15:16:44.234Z,2.08
2023-05-14T15:19:12.423Z,1.92
2023-05-14T15:21:39.942Z,3.15
2023-05-14T15:24:10.992Z,2.50
2023-05-14T15:26:38.854Z,2.80
2023-05-14T15:29:07.509Z,1.95
2023-05-14T15:31:35.543Z,2.45
2023-05-14T15:34:03.610Z,2.40
2023-05-14T15:36:31.051Z,2.80
2023-05-14T15:39:00.071Z,3.15
2023-05-14T15:41:28.864Z,4.43
2023-05-14T15:43:58.165Z,3.75
2023-05-14T15:46:26.654Z,2.58
2023-05-14T15:48:54.226Z,2.10
2023-05-14T15:51:21.940Z,2.00
2023-05-14T15:53:49.818Z,1.80
2023-05-14T15:56:17.246Z,2.00
2023-05-14T15:58:44.590Z,2.00
2023-05-14T16:01:12.536Z,2.20
2023-05-14T16:03:40.027Z,2.58
2023-05-14T16:06:08.431Z,3.15
2023-05-14T16:08:35.928Z,2.30
2023-05-14T16:11:03.391Z,2.22
2023-05-14T16:13:31.142Z,2.38
2023-05-14T16:15:59.807Z,2.00
2023-05-14T16:18:27.856Z,2.10
2023-05-14T16:20:55.990Z,2.40
2023-05-14T16:23:23.478Z,2.63
2023-05-14T16:25:51.441Z,1.98
2023-05-14T16:28:19.320Z,2.30
2023-05-14T16:30:46.674Z,2.10
2023-05-14T16:33:13.918Z,1.70
2023-05-14T16:35:41.634Z,1.50
2023-05-14T16:38:08.898Z,1.42
2023-05-14T16:40:36.297Z,2.20
2023-05-14T16:43:03.729Z,1.50
2023-05-14T16:45:32.654Z,2.17
2023-05-14T16:48:01.273Z,1.92
2023-05-14T16:50:28.842Z,1.42
2023-05-14T16:52:56.173Z,2.00
2023-05-14T16:55:25.173Z,2.00
2023-05-14T16:57:52.550Z,1.88
2023-05-14T17:00:19.980Z,1.77
2023-05-14T17:02:49.823Z,1.90
2023-05-14T17:05:18.482Z,1.80
2023-05-14T17:07:45.883Z,9.90
2023-05-14T17:10:13.695Z,11.32
2023-05-14T17:12:40.961Z,9.75
2023-05-14T17:15:08.836Z,7.88
2023-05-14T17:17:36.721Z,6.70
2023-05-14T17:20:08.310Z,4.53
2023-05-14T17:22:35.705Z,2.60
2023-05-14T17:25:03.294Z,2.75
2023-05-14T17:27:33.152Z,2.40
2023-05-14T17:30:01.283Z,2.20
2023-05-14T17:32:29.550Z,2.83
2023-05-14T17:34:57.303Z,3.60
2023-05-14T17:37:25.305Z,3.05
2023-05-14T17:39:53.507Z,3.13
2023-05-14T17:42:21.132Z,6.55
2023-05-14T17:44:49.160Z,4.25
2023-05-14T17:47:16.983Z,4.57
2023-05-14T17:49:44.781Z,3.33
2023-05-14T17:52:12.151Z,3.60
2023-05-14T17:54:39.938Z,2.90
2023-05-14T17:57:07.292Z,2.92
2023-05-14T17:59:35.059Z,3.38
2023-05-14T18:02:04.446Z,2.70
2023-05-14T18:04:31.770Z,5.63
2023-05-14T18:07:01.391Z,3.85
2023-05-14T18:09:29.109Z,2.80
2023-05-14T18:11:57.119Z,2.53
2023-05-14T18:14:24.952Z,2.47
2023-05-14T18:16:52.288Z,2.70
2023-05-14T18:19:20.271Z,3.00
2023-05-14T18:21:49.520Z,3.22
2023-05-14T18:24:16.868Z,2.65
2023-05-14T18:26:44.261Z,2.55
2023-05-14T18:29:11.710Z,3.05
2023-05-14T18:31:39.210Z,2.95
2023-05-14T18:34:06.992Z,3.40
2023-05-14T18:36:34.471Z,3.90
2023-05-14T18:39:01.801Z,4.20
2023-05-14T18:41:29.576Z,3.10
2023-05-14T18:43:58.002Z,2.88
2023-05-14T18:46:25.801Z,3.28
2023-05-14T18:48:53.841Z,3.15
2023-05-14T18:51:21.721Z,3.67
2023-05-14T18:53:49.078Z,3.45
2023-05-14T18:56:16.819Z,3.65
2023-05-14T18:58:44.608Z,3.75
2023-05-14T19:01:12.445Z,3.55
2023-05-14T19:03:42.133Z,3.40
2023-05-14T19:06:10.047Z,3.22
2023-05-14T19:08:38.173Z,3.83
2023-05-14T19:11:06.028Z,4.10
2023-05-14T19:13:33.589Z,4.35
2023-05-14T19:16:02.160Z,3.60
2023-05-14T19:18:30.205Z,3.70
2023-05-14T19:20:58.918Z,4.63
2023-05-14T19:23:26.568Z,5.25
2023-05-14T19:25:53.897Z,4.28
2023-05-14T19:28:21.329Z,4.47
2023-05-14T19:30:51.140Z,12.32
2023-05-14T19:33:19.712Z,4.00
2023-05-14T19:35:47.318Z,3.90
2023-05-14T19:38:15.389Z,4.15
2023-05-14T19:40:44.393Z,4.00
2023-05-14T19:43:13.125Z,3.80
2023-05-14T19:45:42.712Z,3.90
2023-05-14T19:48:12.399Z,3.58
2023-05-14T19:50:41.487Z,3.63
2023-05-14T19:53:09.558Z,3.67
2023-05-14T19:55:37.775Z,3.70
2023-05-14T19:58:05.559Z,4.20
2023-05-14T20:00:34.695Z,3.88
2023-05-14T20:03:03.162Z,3.38
2023-05-14T20:05:30.645Z,6.22
2023-05-14T20:07:58.344Z,4.25
2023-05-14T20:10:26.023Z,4.20
2023-05-14T20:12:54.462Z,3.80
2023-05-14T20:15:22.397Z,4.43
2023-05-14T20:17:50.485Z,4.53
2023-05-14T20:20:18.649Z,3.80
2023-05-14T20:22:46.113Z,4.18
2023-05-14T20:25:14.476Z,4.15
2023-05-14T20:27:42.409Z,4.20
2023-05-14T20:30:10.917Z,4.45
2023-05-14T20:32:38.791Z,3.80
2023-05-14T20:35:06.690Z,3.08
2023-05-14T20:37:34.987Z,3.08
2023-05-14T20:40:04.618Z,3.13
2023-05-14T20:42:32.798Z,3.90
2023-05-14T20:45:00.698Z,13.82
2023-05-14T20:47:30.504Z,26.00
2023-05-14T20:49:58.345Z,21.23
2023-05-14T20:52:26.565Z,12.68
2023-05-14T20:54:54.322Z,16.90
2023-05-14T20:57:22.688Z,6.93
2023-05-14T20:59:50.453Z,3.40
2023-05-14T21:02:18.529Z,2.63
2023-05-14T21:04:46.464Z,3.20
2023-05-14T21:07:13.897Z,3.33
2023-05-14T21:09:41.193Z,3.22
2023-05-14T21:12:09.605Z,3.30
2023-05-14T21:14:36.889Z,3.20
2023-05-14T21:17:05.232Z,3.15
2023-05-14T21:19:32.510Z,3.00
2023-05-14T21:21:59.792Z,2.80
2023-05-14T21:24:27.898Z,2.70
2023-05-14T21:26:55.210Z,2.50
2023-05-14T21:29:23.118Z,2.10
2023-05-14T21:31:50.534Z,2.65
2023-05-14T21:34:18.252Z,1.35
2023-05-14T21:36:45.925Z,1.50
2023-05-14T21:39:13.934Z,1.30
2023-05-14T21:41:41.694Z,1.05
2023-05-14T21:44:09.435Z,1.60
2023-05-14T21:46:36.673Z,0.90
2023-05-14T21:49:04.959Z,1.20
2023-05-14T21:51:33.094Z,1.27
2023-05-14T21:54:00.928Z,1.30
2023-05-14T21:56:28.354Z,1.45
2023-05-14T21:58:56.024Z,1.40
2023-05-14T22:01:23.894Z,1.60
2023-05-14T22:03:51.461Z,1.55
2023-05-14T22:06:19.416Z,1.67
2023-05-14T22:08:46.741Z,1.35
2023-05-14T22:11:13.974Z,1.10
2023-05-14T22:13:41.725Z,1.23
2023-05-14T22:16:13.350Z,1.20
2023-05-14T22:18:41.515Z,1.50
2023-05-14T22:21:09.058Z,2.00
2023-05-14T22:23:36.714Z,1.90
2023-05-14T22:26:04.428Z,1.40
2023-05-14T22:28:31.690Z,1.40
2023-05-14T22:30:59.885Z,1.23
2023-05-14T22:33:27.494Z,1.80
2023-05-14T22:35:55.794Z,2.00
2023-05-14T22:38:23.973Z,1.60
2023-05-14T22:40:51.367Z,1.40
2023-05-14T22:43:18.885Z,1.73
2023-05-14T22:45:46.212Z,2.70
2023-05-14T22:48:13.494Z,1.92
2023-05-14T22:50:41.554Z,1.80
2023-05-14T22:53:08.945Z,1.70
2023-05-14T22:55:36.359Z,1.35
2023-05-14T22:58:03.943Z,2.20
2023-05-14T23:00:31.635Z,2.10
2023-05-14T23:02:59.387Z,2.15
2023-05-14T23:05:27.063Z,2.15
2023-05-14T23:07:55.376Z,2.10
2023-05-14T23:10:22.822Z,2.45
2023-05-14T23:12:50.965Z,2.00
2023-05-14T23:15:18.307Z,2.08
2023-05-14T23:17:45.766Z,2.00
2023-05-14T23:20:13.658Z,2.17
2023-05-14T23:22:40.989Z,2.10
2023-05-14T23:25:08.850Z,2.38
2023-05-14T23:27:36.430Z,2.22
2023-05-14T23:30:04.893Z,2.25
2023-05-14T23:32:32.320Z,2.20
2023-05-14T23:34:59.633Z,2.10
2023-05-14T23:37:27.096Z,1.80
2023-05-14T23:39:54.848Z,2.10
2023-05-14T23:42:22.277Z,2.10
2023-05-14T23:44:50.141Z,1.98
2023-05-14T23:47:18.013Z,2.10
2023-05-14T23:49:45.821Z,2.00
2023-05-14T23:52:13.521Z,1.83
2023-05-14T23:54:40.906Z,1.75
2023-05-14T23:57:08.621Z,2.33
2023-05-14T23:59:36.446Z,1.60
